createdAt,value
2023-05-24T00:01:02.656Z,10.36
2023-05-24T00:03:34.941Z,10.32
2023-05-24T00:06:03.896Z,10.29
2023-05-24T00:08:32.425Z,10.28
2023-05-24T00:11:01.209Z,10.24
2023-05-24T00:13:29.821Z,10.22
2023-05-24T00:15:58.343Z,10.20
2023-05-24T00:18:26.966Z,10.14
2023-05-24T00:20:58.540Z,10.11
2023-05-24T00:23:27.400Z,10.06
2023-05-24T00:25:55.958Z,10.05
2023-05-24T00:28:24.524Z,10.02
2023-05-24T00:30:54.158Z,9.99
2023-05-24T00:33:23.550Z,9.98
2023-05-24T00:35:56.434Z,9.93
2023-05-24T00:38:27.514Z,9.92
2023-05-24T00:40:57.454Z,9.89
2023-05-24T00:43:26.204Z,9.89
2023-05-24T00:46:19.357Z,9.87
2023-05-24T00:48:48.262Z,9.85
2023-05-24T00:51:17.592Z,9.81
2023-05-24T00:53:49.336Z,9.79
2023-05-24T00:56:19.082Z,9.74
2023-05-24T00:58:50.456Z,9.70
2023-05-24T01:01:19.108Z,9.67
2023-05-24T01:03:48.197Z,9.63
2023-05-24T01:06:17.802Z,9.60
2023-05-24T01:09:11.737Z,9.55
2023-05-24T01:11:59.332Z,9.50
2023-05-24T01:14:36.761Z,9.45
2023-05-24T01:17:10.949Z,9.41
2023-05-24T01:19:52.428Z,9.37
2023-05-24T01:22:45.077Z,9.33
2023-05-24T01:25:24.391Z,9.27
2023-05-24T01:27:54.925Z,9.23
2023-05-24T01:30:27.544Z,9.20
2023-05-24T01:32:58.566Z,9.15
2023-05-24T01:35:27.154Z,9.11
2023-05-24T01:37:55.757Z,9.05
2023-05-24T01:40:24.898Z,9.02
2023-05-24T01:43:04.300Z,8.99
2023-05-24T01:45:36.982Z,8.94
2023-05-24T01:48:18.769Z,8.92
2023-05-24T01:50:50.957Z,8.84
2023-05-24T01:53:21.455Z,8.79
2023-05-24T01:55:52.701Z,8.74
2023-05-24T01:58:24.390Z,8.68
2023-05-24T02:00:54.134Z,8.66
2023-05-24T02:03:22.867Z,8.61
2023-05-24T02:05:51.534Z,8.61
2023-05-24T02:08:20.046Z,8.59
2023-05-24T02:10:48.778Z,8.55
2023-05-24T02:13:18.211Z,8.49
2023-05-24T02:15:48.552Z,8.44
2023-05-24T02:18:18.664Z,8.39
2023-05-24T02:20:47.244Z,8.33
2023-05-24T02:23:16.006Z,8.27
2023-05-24T02:25:44.574Z,8.23
2023-05-24T02:28:13.214Z,8.18
2023-05-24T02:30:44.554Z,8.12
2023-05-24T02:33:14.924Z,8.09
2023-05-24T02:35:43.548Z,8.06
2023-05-24T02:38:12.082Z,8.02
2023-05-24T02:40:40.738Z,7.99
2023-05-24T02:43:13.667Z,7.96
2023-05-24T02:45:42.608Z,7.94
2023-05-24T02:48:11.099Z,7.91
2023-05-24T02:50:41.157Z,7.88
2023-05-24T02:53:09.975Z,7.84
2023-05-24T02:55:38.678Z,7.80
2023-05-24T02:58:08.423Z,7.77
2023-05-24T03:00:38.269Z,7.71
2023-05-24T03:03:07.525Z,7.66
2023-05-24T03:05:36.277Z,7.62
2023-05-24T03:08:06.922Z,7.55
2023-05-24T03:10:35.659Z,7.52
2023-05-24T03:13:04.303Z,7.47
2023-05-24T03:15:33.019Z,7.43
2023-05-24T03:18:01.615Z,7.40
2023-05-24T03:20:30.228Z,7.34
2023-05-24T03:22:58.873Z,7.32
2023-05-24T03:25:28.750Z,7.30
2023-05-24T03:27:57.343Z,7.28
2023-05-24T03:30:26.208Z,7.25
2023-05-24T03:32:56.789Z,7.20
2023-05-24T03:35:25.509Z,7.18
2023-05-24T03:37:54.266Z,7.14
2023-05-24T03:40:22.873Z,7.11
2023-05-24T03:43:02.387Z,7.09
2023-05-24T03:45:45.391Z,7.07
2023-05-24T03:48:14.366Z,7.05
2023-05-24T03:50:43.221Z,7.02
2023-05-24T03:53:13.045Z,7.02
2023-05-24T03:55:41.562Z,7.01
2023-05-24T03:58:12.659Z,6.97
2023-05-24T04:00:41.519Z,6.96
2023-05-24T04:03:11.084Z,6.95
2023-05-24T04:05:41.218Z,6.93
2023-05-24T04:08:09.917Z,6.91
2023-05-24T04:10:40.057Z,6.89
2023-05-24T04:13:11.217Z,6.90
2023-05-24T04:15:39.837Z,6.89
2023-05-24T04:20:37.315Z,6.92
2023-05-24T04:23:06.030Z,6.90
2023-05-24T04:25:35.185Z,6.91
2023-05-24T04:28:04.452Z,6.89
2023-05-24T04:30:36.804Z,6.89
2023-05-24T04:33:05.508Z,6.89
2023-05-24T04:35:35.635Z,6.88
2023-05-24T04:38:04.224Z,6.90
2023-05-24T04:40:32.889Z,6.91
2023-05-24T04:43:02.413Z,6.93
2023-05-24T04:45:33.195Z,6.95
2023-05-24T04:48:03.431Z,6.97
2023-05-24T04:50:32.450Z,6.98
2023-05-24T04:53:01.759Z,7.00
2023-05-24T04:55:32.783Z,7.03
2023-05-24T04:58:04.585Z,7.07
2023-05-24T05:00:33.983Z,7.13
2023-05-24T05:03:05.592Z,7.20
2023-05-24T05:05:34.498Z,7.28
2023-05-24T05:08:03.832Z,7.35
2023-05-24T05:10:32.439Z,7.43
2023-05-24T05:13:01.233Z,7.51
2023-05-24T05:15:31.104Z,7.59
2023-05-24T05:18:00.345Z,7.66
2023-05-24T05:20:30.694Z,7.71
2023-05-24T05:22:59.619Z,7.76
2023-05-24T05:25:28.841Z,7.83
2023-05-24T05:27:57.711Z,7.90
2023-05-24T05:30:27.434Z,7.96
2023-05-24T05:32:56.528Z,8.05
2023-05-24T05:35:25.550Z,8.12
2023-05-24T05:37:55.983Z,8.16
2023-05-24T05:40:24.603Z,8.25
2023-05-24T05:42:53.076Z,8.32
2023-05-24T05:45:21.874Z,8.40
2023-05-24T05:47:50.458Z,8.49
2023-05-24T05:50:19.135Z,8.59
2023-05-24T05:52:47.655Z,8.69
2023-05-24T05:55:17.567Z,8.79
2023-05-24T05:57:46.157Z,8.90
2023-05-24T06:00:15.385Z,8.99
2023-05-24T06:02:44.115Z,9.07
2023-05-24T06:05:14.079Z,9.12
2023-05-24T06:07:44.651Z,9.18
2023-05-24T06:10:13.287Z,9.25
2023-05-24T06:12:43.140Z,9.31
2023-05-24T06:15:12.313Z,9.37
2023-05-24T06:17:42.418Z,9.41
2023-05-24T06:20:15.812Z,9.49
2023-05-24T06:22:45.637Z,9.58
2023-05-24T06:25:19.098Z,9.67
2023-05-24T06:27:48.995Z,9.77
2023-05-24T06:30:17.675Z,9.86
2023-05-24T06:32:49.608Z,9.92
2023-05-24T06:35:18.167Z,10.00
2023-05-24T06:37:46.884Z,10.05
2023-05-24T06:40:15.488Z,10.09
2023-05-24T06:42:44.019Z,10.12
2023-05-24T06:45:15.030Z,10.10
2023-05-24T06:47:43.701Z,10.11
2023-05-24T06:50:12.647Z,10.13
2023-05-24T06:52:41.393Z,10.15
2023-05-24T06:55:10.697Z,10.20
2023-05-24T06:57:39.175Z,10.24
2023-05-24T07:00:12.684Z,10.27
2023-05-24T07:02:43.378Z,10.34
2023-05-24T07:05:12.497Z,10.43
2023-05-24T07:10:27.858Z,10.63
2023-05-24T07:12:56.605Z,10.72
2023-05-24T07:15:25.345Z,10.79
2023-05-24T07:17:57.981Z,10.88
2023-05-24T07:20:26.723Z,10.96
2023-05-24T07:22:56.939Z,11.05
2023-05-24T07:25:26.538Z,11.14
2023-05-24T07:27:55.172Z,11.23
2023-05-24T07:30:31.669Z,11.31
2023-05-24T07:33:03.249Z,11.39
2023-05-24T07:35:32.941Z,11.47
2023-05-24T07:38:02.436Z,11.52
2023-05-24T07:40:31.144Z,11.56
2023-05-24T07:42:59.625Z,11.60
2023-05-24T07:45:28.180Z,11.64
2023-05-24T07:47:57.083Z,11.69
2023-05-24T07:50:27.183Z,11.74
2023-05-24T07:52:56.004Z,11.78
2023-05-24T07:55:24.403Z,11.82
2023-05-24T07:57:52.877Z,11.85
2023-05-24T08:00:23.125Z,11.90
2023-05-24T08:02:52.443Z,11.93
2023-05-24T08:05:21.098Z,11.97
2023-05-24T08:07:50.910Z,12.00
2023-05-24T08:10:19.528Z,12.04
2023-05-24T08:12:50.421Z,12.08
2023-05-24T08:15:19.332Z,12.12
2023-05-24T08:17:47.971Z,12.14
2023-05-24T08:20:17.871Z,12.20
2023-05-24T08:22:48.308Z,12.23
2023-05-24T08:25:18.150Z,12.26
2023-05-24T08:27:46.832Z,12.28
2023-05-24T08:30:15.630Z,12.30
2023-05-24T08:32:44.180Z,12.35
2023-05-24T08:35:20.763Z,12.40
2023-05-24T08:37:50.439Z,12.45
2023-05-24T08:40:24.173Z,12.50
2023-05-24T08:42:54.137Z,12.57
2023-05-24T08:45:23.488Z,12.59
2023-05-24T08:47:52.884Z,12.64
2023-05-24T08:50:21.705Z,12.68
2023-05-24T08:52:50.832Z,12.68
2023-05-24T08:55:21.400Z,12.68
2023-05-24T08:57:50.197Z,12.67
2023-05-24T09:00:19.755Z,12.71
2023-05-24T09:02:50.446Z,12.77
2023-05-24T09:05:21.876Z,12.84
2023-05-24T09:07:51.389Z,12.93
2023-05-24T09:10:23.620Z,13.00
2023-05-24T09:12:56.434Z,13.06
2023-05-24T09:15:25.531Z,13.13
2023-05-24T09:17:54.190Z,13.19
2023-05-24T09:20:23.241Z,13.26
2023-05-24T09:22:54.197Z,13.33
2023-05-24T09:25:24.270Z,13.40
2023-05-24T09:27:53.314Z,13.45
2023-05-24T09:30:22.380Z,13.51
2023-05-24T09:33:01.608Z,13.59
2023-05-24T09:35:31.311Z,13.67
2023-05-24T09:38:00.920Z,13.72
2023-05-24T09:40:31.460Z,13.76
2023-05-24T09:43:10.726Z,13.84
2023-05-24T09:45:42.903Z,13.93
2023-05-24T09:48:13.628Z,13.97
2023-05-24T09:50:42.637Z,14.01
2023-05-24T09:53:11.474Z,14.04
2023-05-24T09:55:41.735Z,14.09
2023-05-24T09:58:12.861Z,14.12
2023-05-24T10:00:43.638Z,14.11
2023-05-24T10:03:13.695Z,14.13
2023-05-24T10:05:45.745Z,14.22
2023-05-24T10:08:15.234Z,14.32
2023-05-24T10:10:46.930Z,14.46
2023-05-24T10:13:17.770Z,14.61
2023-05-24T10:15:47.053Z,14.65
2023-05-24T10:18:16.093Z,14.68
2023-05-24T10:20:45.683Z,14.72
2023-05-24T10:23:21.767Z,14.78
2023-05-24T10:25:57.206Z,14.79
2023-05-24T10:28:29.802Z,14.77
2023-05-24T10:31:07.352Z,14.74
2023-05-24T10:33:38.344Z,14.70
2023-05-24T10:36:10.847Z,14.69
2023-05-24T10:38:40.873Z,14.69
2023-05-24T10:41:10.957Z,14.69
2023-05-24T10:43:40.110Z,14.67
2023-05-24T10:46:10.867Z,14.70
2023-05-24T10:48:41.142Z,14.78
2023-05-24T10:51:35.484Z,14.84
2023-05-24T10:54:15.852Z,14.91
2023-05-24T10:56:49.342Z,14.99
2023-05-24T10:59:35.160Z,15.12
2023-05-24T11:02:06.307Z,15.21
2023-05-24T11:04:38.634Z,15.21
2023-05-24T11:07:13.652Z,15.17
2023-05-24T11:09:47.301Z,15.09
2023-05-24T11:12:21.507Z,15.03
2023-05-24T11:14:52.685Z,14.98
2023-05-24T11:17:23.696Z,14.94
2023-05-24T11:19:55.500Z,14.92
2023-05-24T11:22:29.636Z,14.89
2023-05-24T11:25:04.398Z,14.87
2023-05-24T11:27:36.233Z,14.84
2023-05-24T11:30:07.287Z,14.80
2023-05-24T11:32:42.691Z,14.75
2023-05-24T11:35:12.559Z,14.70
2023-05-24T11:37:46.813Z,14.69
2023-05-24T11:40:17.455Z,14.68
2023-05-24T11:42:48.655Z,14.65
2023-05-24T11:45:20.021Z,14.62
2023-05-24T11:47:53.234Z,14.58
2023-05-24T11:50:28.866Z,14.59
2023-05-24T11:53:04.809Z,14.60
2023-05-24T11:55:33.504Z,14.60
2023-05-24T11:58:09.090Z,14.63
2023-05-24T12:00:38.738Z,14.69
2023-05-24T12:03:10.355Z,14.77
2023-05-24T12:05:39.739Z,14.83
2023-05-24T12:08:13.034Z,14.94
2023-05-24T12:10:46.219Z,15.05
2023-05-24T12:13:24.627Z,15.17
2023-05-24T12:15:56.636Z,15.26
2023-05-24T12:18:27.410Z,15.37
2023-05-24T12:20:56.386Z,15.47
2023-05-24T12:23:28.204Z,15.53
2023-05-24T12:26:01.675Z,15.59
2023-05-24T12:28:39.369Z,15.67
2023-05-24T12:31:10.256Z,15.77
2023-05-24T12:33:40.043Z,15.86
2023-05-24T12:36:11.801Z,15.94
2023-05-24T12:38:41.129Z,16.01
2023-05-24T12:41:14.181Z,16.06
2023-05-24T12:43:45.564Z,16.10
2023-05-24T12:46:14.303Z,16.16
2023-05-24T12:48:43.046Z,16.26
2023-05-24T12:51:12.619Z,16.38
2023-05-24T12:53:41.626Z,16.52
2023-05-24T12:56:10.170Z,16.63
2023-05-24T12:58:38.666Z,16.67
2023-05-24T13:01:08.771Z,16.71
2023-05-24T13:03:37.352Z,16.70
2023-05-24T13:06:06.358Z,16.68
2023-05-24T13:08:35.034Z,16.59
2023-05-24T13:11:03.501Z,16.54
2023-05-24T13:13:32.651Z,16.55
2023-05-24T13:16:01.144Z,16.61
2023-05-24T13:18:31.003Z,16.72
2023-05-24T13:21:00.665Z,16.75
2023-05-24T13:23:31.746Z,16.75
2023-05-24T13:26:00.407Z,16.75
2023-05-24T13:28:32.583Z,16.78
2023-05-24T13:31:01.269Z,16.80
2023-05-24T13:33:34.776Z,16.85
2023-05-24T13:36:03.352Z,16.90
2023-05-24T13:38:31.976Z,16.92
2023-05-24T13:41:00.576Z,16.96
2023-05-24T13:43:29.071Z,16.95
2023-05-24T13:45:58.666Z,16.96
2023-05-24T13:48:27.391Z,16.97
2023-05-24T13:50:57.302Z,16.99
2023-05-24T13:53:26.289Z,17.01
2023-05-24T13:55:54.951Z,17.07
2023-05-24T13:58:23.492Z,17.12
2023-05-24T14:00:52.208Z,17.16
2023-05-24T14:03:20.662Z,17.20
2023-05-24T14:05:49.514Z,17.21
2023-05-24T14:08:19.535Z,17.24
2023-05-24T14:10:49.985Z,17.28
2023-05-24T14:15:54.111Z,17.45
2023-05-24T14:18:22.759Z,17.56
2023-05-24T14:20:51.323Z,17.61
2023-05-24T14:23:21.274Z,17.67
2023-05-24T14:25:51.887Z,17.74
2023-05-24T14:28:20.737Z,17.74
2023-05-24T14:30:49.228Z,17.72
2023-05-24T14:33:17.882Z,17.68
2023-05-24T14:35:46.801Z,17.61
2023-05-24T14:38:15.456Z,17.53
2023-05-24T14:40:47.530Z,17.45
2023-05-24T14:43:16.451Z,17.39
2023-05-24T14:45:45.347Z,17.32
2023-05-24T14:48:14.973Z,17.27
2023-05-24T14:50:43.533Z,17.22
2023-05-24T14:53:15.239Z,17.21
2023-05-24T14:55:45.387Z,17.16
2023-05-24T14:58:14.361Z,17.12
2023-05-24T15:00:44.107Z,17.08
2023-05-24T15:03:14.593Z,17.03
2023-05-24T15:05:43.696Z,16.91
2023-05-24T15:08:12.594Z,16.85
2023-05-24T15:10:44.471Z,16.79
2023-05-24T15:13:14.987Z,16.76
2023-05-24T15:15:43.505Z,16.76
2023-05-24T15:18:12.264Z,16.73
2023-05-24T15:20:41.257Z,16.69
2023-05-24T15:23:10.899Z,16.67
2023-05-24T15:25:39.784Z,16.66
2023-05-24T15:28:10.773Z,16.65
2023-05-24T15:30:44.124Z,16.64
2023-05-24T15:33:13.536Z,16.60
2023-05-24T15:35:42.459Z,16.64
2023-05-24T15:38:11.053Z,16.70
2023-05-24T15:40:42.096Z,16.86
2023-05-24T15:43:10.978Z,17.09
2023-05-24T15:45:41.653Z,17.28
2023-05-24T15:48:11.103Z,17.44
2023-05-24T15:50:57.835Z,17.53
2023-05-24T15:53:29.141Z,17.59
2023-05-24T15:55:57.914Z,17.61
2023-05-24T15:58:26.515Z,17.62
2023-05-24T16:00:56.546Z,17.57
2023-05-24T16:03:25.344Z,17.50
2023-05-24T16:05:54.251Z,17.42
2023-05-24T16:08:27.542Z,17.33
2023-05-24T16:10:56.392Z,17.24
2023-05-24T16:13:25.313Z,17.16
2023-05-24T16:15:53.867Z,17.06
2023-05-24T16:18:23.850Z,16.97
2023-05-24T16:20:52.901Z,16.91
2023-05-24T16:23:23.286Z,16.87
2023-05-24T16:25:52.142Z,16.81
2023-05-24T16:28:23.964Z,16.83
2023-05-24T16:30:55.943Z,16.84
2023-05-24T16:33:26.652Z,16.87
2023-05-24T16:36:02.892Z,16.89
2023-05-24T16:38:32.300Z,16.91
2023-05-24T16:41:01.104Z,16.96
2023-05-24T16:43:30.344Z,16.95
2023-05-24T16:45:58.969Z,16.94
2023-05-24T16:48:31.429Z,16.91
2023-05-24T16:51:01.098Z,16.90
2023-05-24T16:53:29.940Z,16.88
2023-05-24T16:55:58.532Z,16.85
2023-05-24T16:58:29.221Z,16.84
2023-05-24T17:00:58.662Z,16.84
2023-05-24T17:03:29.647Z,16.84
2023-05-24T17:06:03.465Z,16.83
2023-05-24T17:08:35.008Z,16.81
2023-05-24T17:11:03.681Z,16.77
2023-05-24T17:13:33.168Z,16.72
2023-05-24T17:16:01.944Z,16.67
2023-05-24T17:18:33.264Z,16.62
2023-05-24T17:21:04.207Z,16.58
2023-05-24T17:23:34.552Z,16.55
2023-05-24T17:26:03.421Z,16.56
2023-05-24T17:28:32.302Z,16.56
2023-05-24T17:31:02.093Z,16.54
2023-05-24T17:33:32.526Z,16.54
2023-05-24T17:36:04.329Z,16.54
2023-05-24T17:38:33.926Z,16.52
2023-05-24T17:41:02.501Z,16.49
2023-05-24T17:43:32.643Z,16.46
2023-05-24T17:46:06.496Z,16.42
2023-05-24T17:48:37.237Z,16.35
2023-05-24T17:51:08.603Z,16.32
2023-05-24T17:53:41.247Z,16.28
2023-05-24T17:56:12.525Z,16.24
2023-05-24T17:58:43.344Z,16.18
2023-05-24T18:01:13.470Z,16.14
2023-05-24T18:03:43.071Z,16.10
2023-05-24T18:06:14.852Z,16.06
2023-05-24T18:08:44.703Z,16.01
2023-05-24T18:11:16.520Z,15.95
2023-05-24T18:13:46.964Z,15.92
2023-05-24T18:16:17.318Z,15.88
2023-05-24T18:18:47.164Z,15.80
2023-05-24T18:21:18.456Z,15.77
2023-05-24T18:23:51.022Z,15.71
2023-05-24T18:26:20.570Z,15.65
2023-05-24T18:28:50.382Z,15.61
2023-05-24T18:31:20.887Z,15.55
2023-05-24T18:33:50.443Z,15.50
2023-05-24T18:36:21.517Z,15.44
2023-05-24T18:38:51.296Z,15.40
2023-05-24T18:41:21.789Z,15.36
2023-05-24T18:43:52.248Z,15.31
2023-05-24T18:46:21.596Z,15.27
2023-05-24T18:48:52.782Z,15.23
2023-05-24T18:51:23.508Z,15.19
2023-05-24T18:53:53.706Z,15.14
2023-05-24T18:56:22.815Z,15.10
2023-05-24T18:58:59.978Z,15.03
2023-05-24T19:01:30.088Z,14.97
2023-05-24T19:04:00.158Z,14.91
2023-05-24T19:06:31.683Z,14.85
2023-05-24T19:09:02.470Z,14.78
2023-05-24T19:11:32.326Z,14.71
2023-05-24T19:14:02.040Z,14.65
2023-05-24T19:16:31.886Z,14.61
2023-05-24T19:19:02.128Z,14.54
2023-05-24T19:21:33.961Z,14.50
2023-05-24T19:24:03.657Z,14.44
2023-05-24T19:26:33.686Z,14.40
2023-05-24T19:29:04.238Z,14.34
2023-05-24T19:31:36.437Z,14.27
2023-05-24T19:34:07.953Z,14.21
2023-05-24T19:36:39.594Z,14.17
2023-05-24T19:39:09.160Z,14.11
2023-05-24T19:41:38.745Z,14.06
2023-05-24T19:44:07.827Z,14.00
2023-05-24T19:46:37.764Z,13.96
2023-05-24T19:49:07.697Z,13.91
2023-05-24T19:51:39.626Z,13.85
2023-05-24T19:54:13.827Z,13.80
2023-05-24T19:56:44.307Z,13.72
2023-05-24T19:59:14.394Z,13.68
2023-05-24T20:01:43.844Z,13.61
2023-05-24T20:04:13.705Z,13.57
2023-05-24T20:06:44.134Z,13.51
2023-05-24T20:09:19.082Z,13.46
2023-05-24T20:11:48.186Z,13.41
2023-05-24T20:14:19.276Z,13.34
2023-05-24T20:16:48.029Z,13.27
2023-05-24T20:19:16.896Z,13.19
2023-05-24T20:21:47.068Z,13.10
2023-05-24T20:24:15.691Z,13.02
2023-05-24T20:26:45.057Z,12.93
2023-05-24T20:29:20.267Z,12.86
2023-05-24T20:31:49.347Z,12.77
2023-05-24T20:34:17.953Z,12.70
2023-05-24T20:36:48.217Z,12.65
2023-05-24T20:39:17.033Z,12.59
2023-05-24T20:41:45.895Z,12.54
2023-05-24T20:44:14.960Z,12.49
2023-05-24T20:46:43.997Z,12.45
2023-05-24T20:49:14.530Z,12.39
2023-05-24T20:51:43.212Z,12.36
2023-05-24T20:54:13.988Z,12.29
2023-05-24T20:56:43.779Z,12.25
2023-05-24T20:59:12.409Z,12.19
2023-05-24T21:01:41.413Z,12.15
2023-05-24T21:04:10.060Z,12.09
2023-05-24T21:06:38.746Z,12.04
2023-05-24T21:09:07.255Z,12.00
2023-05-24T21:11:37.254Z,11.96
2023-05-24T21:14:06.083Z,11.90
2023-05-24T21:16:34.699Z,11.85
2023-05-24T21:19:03.724Z,11.80
2023-05-24T21:21:32.276Z,11.76
2023-05-24T21:24:00.737Z,11.70
2023-05-24T21:26:29.208Z,11.64
2023-05-24T21:28:59.164Z,11.58
2023-05-24T21:31:29.865Z,11.51
2023-05-24T21:33:58.735Z,11.45
2023-05-24T21:36:27.247Z,11.40
2023-05-24T21:38:58.530Z,11.35
2023-05-24T21:41:27.755Z,11.32
2023-05-24T21:43:56.253Z,11.28
2023-05-24T21:46:29.147Z,11.25
2023-05-24T21:48:58.123Z,11.21
2023-05-24T21:51:26.760Z,11.17
2023-05-24T21:53:55.331Z,11.10
2023-05-24T21:56:23.854Z,11.07
2023-05-24T21:59:10.059Z,11.03
2023-05-24T22:01:39.967Z,11.00
2023-05-24T22:04:10.336Z,10.96
2023-05-24T22:06:41.408Z,10.91
2023-05-24T22:09:10.632Z,10.86
2023-05-24T22:11:40.896Z,10.80
2023-05-24T22:14:10.910Z,10.75
2023-05-24T22:16:41.286Z,10.69
2023-05-24T22:19:14.408Z,10.64
2023-05-24T22:21:43.395Z,10.61
2023-05-24T22:24:12.603Z,10.57
2023-05-24T22:26:41.745Z,10.53
2023-05-24T22:29:10.531Z,10.50
2023-05-24T22:31:40.574Z,10.46
2023-05-24T22:34:12.435Z,10.43
2023-05-24T22:36:41.039Z,10.40
2023-05-24T22:39:09.543Z,10.36
2023-05-24T22:41:38.084Z,10.33
2023-05-24T22:44:06.628Z,10.30
2023-05-24T22:46:38.432Z,10.27
2023-05-24T22:49:08.623Z,10.24
2023-05-24T22:51:37.737Z,10.23
2023-05-24T22:54:06.588Z,10.21
2023-05-24T22:56:36.136Z,10.19
2023-05-24T22:59:04.868Z,10.15
2023-05-24T23:01:33.936Z,10.11
2023-05-24T23:04:18.856Z,10.08
2023-05-24T23:06:52.350Z,10.04
2023-05-24T23:09:28.996Z,10.00
2023-05-24T23:11:58.664Z,9.97
2023-05-24T23:14:30.394Z,9.94
2023-05-24T23:17:02.561Z,9.88
2023-05-24T23:19:32.497Z,9.85
2023-05-24T23:22:03.691Z,9.79
2023-05-24T23:24:34.482Z,9.77
2023-05-24T23:27:03.061Z,9.74
2023-05-24T23:29:31.575Z,9.70
2023-05-24T23:32:00.230Z,9.67
2023-05-24T23:34:28.903Z,9.65
2023-05-24T23:36:57.986Z,9.62
2023-05-24T23:39:28.014Z,9.60
2023-05-24T23:41:56.699Z,9.60
2023-05-24T23:44:25.923Z,9.57
2023-05-24T23:46:54.898Z,9.56
2023-05-24T23:49:24.010Z,9.56
2023-05-24T23:51:52.638Z,9.55
2023-05-24T23:54:21.296Z,9.55
2023-05-24T23:56:51.347Z,9.54
2023-05-24T23:59:19.828Z,9.53
